createdAt,value
2023-04-15T00:02:19.737Z,27.33
2023-04-15T00:04:49.146Z,23.50
2023-04-15T00:07:18.103Z,21.40
2023-04-15T00:09:46.121Z,24.58
2023-04-15T00:12:13.749Z,29.45
2023-04-15T00:14:41.591Z,26.42
2023-04-15T00:17:09.512Z,31.30
2023-04-15T00:19:37.120Z,26.02
2023-04-15T00:22:04.937Z,26.27
2023-04-15T00:24:32.759Z,26.65
2023-04-15T00:27:00.617Z,28.40
2023-04-15T00:29:28.443Z,27.80
2023-04-15T00:31:56.985Z,23.05
2023-04-15T00:34:24.910Z,18.42
2023-04-15T00:36:52.690Z,24.73
2023-04-15T00:41:49.399Z,23.98
2023-04-15T00:44:19.274Z,27.35
2023-04-15T00:46:49.045Z,24.60
2023-04-15T00:49:18.722Z,26.33
2023-04-15T00:51:46.461Z,25.75
2023-04-15T00:54:14.286Z,19.60
2023-04-15T00:56:43.038Z,23.13
2023-04-15T00:59:11.130Z,24.10
2023-04-15T01:01:39.038Z,21.83
2023-04-15T01:04:07.381Z,24.20
2023-04-15T01:06:35.163Z,24.45
2023-04-15T01:09:03.419Z,23.65
2023-04-15T01:11:36.020Z,19.15
2023-04-15T01:14:04.536Z,24.75
2023-04-15T01:16:32.261Z,19.25
2023-04-15T01:19:00.604Z,21.70
2023-04-15T01:21:28.318Z,18.50
2023-04-15T01:23:56.980Z,26.88
2023-04-15T01:26:25.422Z,26.63
2023-04-15T01:28:53.567Z,21.40
2023-04-15T01:31:22.224Z,20.58
2023-04-15T01:36:37.165Z,28.02
2023-04-15T01:39:05.678Z,29.63
2023-04-15T01:41:33.488Z,17.20
2023-04-15T01:44:03.433Z,19.23
2023-04-15T01:46:32.600Z,22.17
2023-04-15T01:49:02.776Z,25.40
2023-04-15T01:51:33.469Z,16.55
2023-04-15T01:54:02.426Z,24.50
2023-04-15T01:56:32.235Z,17.25
2023-04-15T01:59:01.949Z,24.95
2023-04-15T02:01:31.171Z,24.98
2023-04-15T02:04:01.846Z,18.80
2023-04-15T02:06:33.388Z,20.92
2023-04-15T02:09:02.449Z,29.75
2023-04-15T02:11:32.254Z,20.02
2023-04-15T02:14:01.037Z,18.33
2023-04-15T02:16:29.973Z,24.42
2023-04-15T02:19:00.019Z,20.70
2023-04-15T02:21:29.390Z,26.73
2023-04-15T02:23:58.237Z,26.65
2023-04-15T02:26:27.227Z,25.60
2023-04-15T02:28:56.608Z,27.42
2023-04-15T02:31:26.066Z,26.08
2023-04-15T02:33:55.265Z,25.45
2023-04-15T02:36:24.288Z,24.75
2023-04-15T02:38:53.099Z,29.15
2023-04-15T02:41:27.195Z,28.42
2023-04-15T02:43:57.186Z,27.48
2023-04-15T02:46:27.564Z,31.00
2023-04-15T02:48:56.760Z,26.92
2023-04-15T02:51:32.177Z,26.17
2023-04-15T02:54:01.633Z,31.05
2023-04-15T02:56:30.987Z,27.63
2023-04-15T02:59:00.482Z,32.70
2023-04-15T03:01:29.670Z,30.60
2023-04-15T03:03:58.798Z,30.25
2023-04-15T03:06:27.810Z,33.80
2023-04-15T03:08:57.041Z,31.48
2023-04-15T03:11:27.344Z,32.50
2023-04-15T03:13:57.023Z,32.33
2023-04-15T03:16:33.978Z,38.40
2023-04-15T03:19:03.360Z,34.88
2023-04-15T03:21:33.627Z,39.15
2023-04-15T03:24:02.405Z,35.92
2023-04-15T03:26:32.300Z,34.25
2023-04-15T03:29:05.091Z,37.47
2023-04-15T03:31:34.029Z,35.15
2023-04-15T03:34:03.364Z,37.42
2023-04-15T03:36:33.171Z,33.35
2023-04-15T03:39:04.880Z,34.72
2023-04-15T03:41:34.036Z,36.95
2023-04-15T03:44:03.215Z,39.08
2023-04-15T03:46:32.648Z,38.58
2023-04-15T03:49:02.208Z,39.35
2023-04-15T03:51:31.812Z,34.95
2023-04-15T03:54:00.600Z,32.53
2023-04-15T03:56:29.452Z,43.58
2023-04-15T03:58:58.542Z,40.88
2023-04-15T04:01:27.903Z,36.40
2023-04-15T04:03:56.821Z,37.50
2023-04-15T04:06:26.699Z,28.25
2023-04-15T04:08:56.010Z,30.15
2023-04-15T04:11:24.915Z,20.20
2023-04-15T04:13:53.942Z,27.23
2023-04-15T04:16:22.926Z,31.58
2023-04-15T04:18:51.837Z,26.40
2023-04-15T04:21:21.808Z,29.55
2023-04-15T04:23:51.351Z,34.72
2023-04-15T04:26:20.986Z,31.95
2023-04-15T04:28:50.361Z,27.77
2023-04-15T04:31:19.370Z,33.95
2023-04-15T04:33:48.865Z,24.35
2023-04-15T04:36:17.601Z,25.13
2023-04-15T04:38:46.860Z,24.63
2023-04-15T04:41:16.046Z,23.00
2023-04-15T04:43:44.797Z,27.48
2023-04-15T04:46:14.042Z,30.95
2023-04-15T04:48:43.641Z,34.92
2023-04-15T04:51:12.776Z,37.58
2023-04-15T04:53:43.368Z,33.13
2023-04-15T04:56:12.591Z,23.02
2023-04-15T04:58:41.722Z,24.95
2023-04-15T05:01:10.721Z,26.10
2023-04-15T05:03:39.993Z,29.45
2023-04-15T05:06:09.238Z,36.05
2023-04-15T05:08:39.926Z,40.50
2023-04-15T05:11:10.310Z,44.13
2023-04-15T05:13:39.436Z,42.47
2023-04-15T05:16:08.520Z,47.60
2023-04-15T05:18:38.128Z,43.90
2023-04-15T05:21:08.049Z,45.35
2023-04-15T05:23:37.720Z,56.25
2023-04-15T05:26:06.789Z,36.60
2023-04-15T05:28:35.908Z,54.35
2023-04-15T05:31:06.216Z,134.45
2023-04-15T05:33:35.523Z,68.90
2023-04-15T05:36:04.837Z,71.88
2023-04-15T05:38:33.942Z,47.50
2023-04-15T05:41:02.754Z,43.15
2023-04-15T05:43:31.813Z,50.25
2023-04-15T05:46:00.645Z,41.70
2023-04-15T05:48:29.492Z,47.20
2023-04-15T05:50:58.786Z,47.20
2023-04-15T05:53:27.624Z,38.92
2023-04-15T05:55:56.450Z,24.80
2023-04-15T05:58:25.477Z,22.27
2023-04-15T06:00:54.312Z,30.27
2023-04-15T06:03:23.827Z,31.20
2023-04-15T06:05:52.664Z,27.38
2023-04-15T06:08:22.232Z,25.70
2023-04-15T06:10:51.142Z,24.45
2023-04-15T06:13:20.088Z,23.00
2023-04-15T06:15:49.550Z,30.33
2023-04-15T06:18:18.403Z,27.27
2023-04-15T06:20:47.631Z,21.48
2023-04-15T06:23:16.799Z,23.80
2023-04-15T06:25:45.892Z,24.00
2023-04-15T06:28:14.764Z,23.63
2023-04-15T06:30:44.083Z,23.58
2023-04-15T06:33:13.418Z,22.30
2023-04-15T06:35:42.156Z,22.88
2023-04-15T06:38:11.109Z,22.83
2023-04-15T06:40:39.963Z,23.83
2023-04-15T06:43:09.249Z,24.60
2023-04-15T06:45:38.272Z,23.58
2023-04-15T06:48:07.328Z,21.35
2023-04-15T06:50:36.219Z,19.95
2023-04-15T06:53:05.782Z,18.17
2023-04-15T06:55:34.564Z,13.00
2023-04-15T06:58:03.582Z,17.52
2023-04-15T07:00:33.822Z,16.25
2023-04-15T07:03:03.862Z,17.38
2023-04-15T07:05:33.554Z,17.48
2023-04-15T07:08:03.022Z,17.02
2023-04-15T07:10:34.441Z,13.70
2023-04-15T07:13:04.618Z,17.13
2023-04-15T07:15:33.814Z,18.02
2023-04-15T07:18:02.733Z,18.20
2023-04-15T07:20:31.833Z,16.98
2023-04-15T07:23:00.579Z,16.35
2023-04-15T07:25:29.622Z,15.57
2023-04-15T07:27:58.703Z,13.02
2023-04-15T07:30:27.920Z,14.73
2023-04-15T07:32:56.711Z,14.10
2023-04-15T07:35:26.666Z,13.57
2023-04-15T07:37:55.616Z,13.20
2023-04-15T07:40:25.284Z,12.73
2023-04-15T07:42:54.630Z,13.95
2023-04-15T07:45:23.407Z,12.98
2023-04-15T07:47:52.524Z,12.50
2023-04-15T07:50:21.806Z,9.07
2023-04-15T07:52:52.450Z,8.35
2023-04-15T07:55:23.455Z,8.70
2023-04-15T07:57:52.421Z,6.82
2023-04-15T08:00:21.307Z,6.38
2023-04-15T08:02:50.360Z,5.78
2023-04-15T08:05:20.041Z,8.00
2023-04-15T08:07:49.360Z,6.15
2023-04-15T08:10:18.266Z,6.68
2023-04-15T08:12:49.728Z,8.45
2023-04-15T08:15:21.070Z,7.35
2023-04-15T08:17:49.878Z,4.95
2023-04-15T08:20:19.730Z,5.88
2023-04-15T08:22:52.132Z,6.97
2023-04-15T08:25:21.314Z,6.45
2023-04-15T08:27:50.939Z,7.57
2023-04-15T08:30:20.381Z,2.90
2023-04-15T08:32:51.214Z,4.32
2023-04-15T08:35:20.109Z,5.18
2023-04-15T08:37:48.975Z,5.38
2023-04-15T08:40:17.882Z,5.20
2023-04-15T08:42:50.079Z,7.13
2023-04-15T08:45:19.471Z,3.83
2023-04-15T08:47:51.750Z,6.63
2023-04-15T08:50:21.128Z,5.00
2023-04-15T08:52:50.061Z,5.95
2023-04-15T08:55:20.684Z,5.60
2023-04-15T08:57:49.641Z,4.22
2023-04-15T09:00:19.004Z,7.03
2023-04-15T09:02:48.750Z,6.82
2023-04-15T09:05:18.141Z,6.35
2023-04-15T09:07:47.678Z,5.35
2023-04-15T09:10:16.657Z,4.93
2023-04-15T09:12:45.611Z,5.32
2023-04-15T09:15:15.677Z,5.22
2023-04-15T09:17:45.710Z,4.78
2023-04-15T09:20:16.294Z,5.15
2023-04-15T09:22:47.124Z,5.25
2023-04-15T09:25:16.475Z,5.18
2023-04-15T09:27:56.925Z,5.22
2023-04-15T09:30:26.569Z,4.47
2023-04-15T09:33:02.429Z,4.07
2023-04-15T09:35:31.617Z,5.70
2023-04-15T09:38:09.954Z,5.57
2023-04-15T09:40:42.599Z,4.95
2023-04-15T09:43:14.458Z,5.00
2023-04-15T09:45:53.224Z,6.10
2023-04-15T09:48:31.193Z,5.30
2023-04-15T09:51:01.522Z,5.32
2023-04-15T09:53:34.648Z,4.60
2023-04-15T09:56:04.431Z,5.32
2023-04-15T09:58:35.303Z,4.65
2023-04-15T10:01:05.880Z,4.88
2023-04-15T10:03:39.039Z,4.32
2023-04-15T10:06:09.212Z,5.05
2023-04-15T10:08:39.230Z,4.95
2023-04-15T10:11:08.697Z,4.97
2023-04-15T10:13:38.939Z,5.70
2023-04-15T10:16:19.497Z,5.22
2023-04-15T10:18:54.670Z,5.15
2023-04-15T10:21:24.016Z,5.00
2023-04-15T10:23:52.940Z,5.53
2023-04-15T10:26:22.229Z,5.40
2023-04-15T10:28:52.401Z,4.70
2023-04-15T10:31:21.708Z,4.55
2023-04-15T10:33:52.132Z,4.22
2023-04-15T10:36:21.491Z,5.22
2023-04-15T10:38:50.309Z,4.95
2023-04-15T10:41:27.985Z,4.35
2023-04-15T10:44:01.163Z,4.75
2023-04-15T10:46:44.075Z,4.85
2023-04-15T10:49:17.668Z,5.05
2023-04-15T10:51:53.011Z,5.10
2023-04-15T10:54:24.862Z,5.53
2023-04-15T10:57:06.594Z,5.18
2023-04-15T11:00:11.298Z,5.18
2023-04-15T11:02:44.661Z,4.70
2023-04-15T11:05:18.248Z,7.32
2023-04-15T11:07:47.199Z,7.30
2023-04-15T11:10:20.892Z,5.95
2023-04-15T11:12:57.581Z,7.47
2023-04-15T11:15:40.323Z,6.50
2023-04-15T11:18:16.617Z,7.10
2023-04-15T11:21:03.417Z,7.10
2023-04-15T11:23:34.166Z,7.27
2023-04-15T11:26:06.944Z,7.53
2023-04-15T11:28:38.692Z,7.35
2023-04-15T11:31:12.764Z,6.75
2023-04-15T11:33:56.967Z,6.72
2023-04-15T11:36:30.167Z,6.88
2023-04-15T11:38:59.892Z,6.50
2023-04-15T11:41:28.729Z,6.30
2023-04-15T11:43:57.673Z,6.50
2023-04-15T11:46:31.716Z,6.30
2023-04-15T11:49:00.785Z,6.65
2023-04-15T11:51:35.960Z,6.93
2023-04-15T11:54:04.180Z,6.32
2023-04-15T11:56:32.093Z,5.40
2023-04-15T11:59:00.275Z,5.68
2023-04-15T12:01:44.053Z,5.15
2023-04-15T12:04:20.151Z,5.75
2023-04-15T12:06:50.064Z,6.18
2023-04-15T12:09:18.093Z,5.82
2023-04-15T12:14:15.863Z,5.50
2023-04-15T12:16:48.657Z,5.32
2023-04-15T12:19:23.359Z,6.10
2023-04-15T12:21:52.312Z,5.70
2023-04-15T12:24:24.703Z,5.07
2023-04-15T12:26:57.729Z,4.53
2023-04-15T12:29:29.849Z,4.63
2023-04-15T12:32:08.536Z,5.60
2023-04-15T12:34:40.660Z,4.95
2023-04-15T12:37:10.109Z,4.47
2023-04-15T12:39:42.748Z,5.65
2023-04-15T12:42:11.362Z,4.78
2023-04-15T12:44:39.409Z,4.30
2023-04-15T12:47:08.208Z,4.43
2023-04-15T12:49:35.924Z,4.30
2023-04-15T12:52:03.935Z,4.47
2023-04-15T12:56:59.933Z,4.30
2023-04-15T12:59:27.498Z,4.65
2023-04-15T13:01:55.513Z,4.13
2023-04-15T13:04:23.450Z,4.18
2023-04-15T13:06:51.729Z,4.63
2023-04-15T13:09:19.394Z,4.30
2023-04-15T13:11:46.975Z,4.65
2023-04-15T13:14:14.829Z,4.20
2023-04-15T13:16:42.395Z,3.95
2023-04-15T13:19:10.070Z,4.25
2023-04-15T13:21:38.025Z,3.70
2023-04-15T13:26:36.045Z,4.68
2023-04-15T13:29:05.777Z,4.63
2023-04-15T13:36:29.150Z,4.07
2023-04-15T13:41:41.296Z,4.03
2023-04-15T13:44:08.919Z,4.15
2023-04-15T13:46:38.091Z,4.05
2023-04-15T13:49:06.963Z,3.97
2023-04-15T13:51:36.956Z,3.90
2023-04-15T13:54:04.951Z,4.05
2023-04-15T13:56:33.095Z,4.38
2023-04-15T14:01:30.160Z,4.35
2023-04-15T14:06:26.250Z,4.18
2023-04-15T14:08:54.938Z,4.75
2023-04-15T14:11:22.596Z,4.32
2023-04-15T14:13:50.610Z,4.80
2023-04-15T14:18:46.475Z,4.93
2023-04-15T14:21:14.113Z,3.90
2023-04-15T14:23:41.630Z,4.40
2023-04-15T14:26:09.266Z,4.50
2023-04-15T14:28:38.574Z,4.28
2023-04-15T14:31:07.523Z,4.47
2023-04-15T14:33:35.123Z,4.07
2023-04-15T14:36:02.855Z,4.05
2023-04-15T14:38:31.087Z,8.30
2023-04-15T14:40:58.876Z,3.67
2023-04-15T14:43:26.372Z,3.97
2023-04-15T14:45:54.143Z,3.70
2023-04-15T14:48:22.109Z,19.20
2023-04-15T14:50:49.707Z,4.00
2023-04-15T14:53:17.286Z,3.80
2023-04-15T14:55:45.668Z,3.63
2023-04-15T14:58:13.176Z,3.45
2023-04-15T15:00:42.129Z,3.78
2023-04-15T15:03:14.144Z,3.95
2023-04-15T15:05:44.809Z,3.20
2023-04-15T15:08:13.506Z,3.60
2023-04-15T15:10:49.458Z,4.55
2023-04-15T15:13:18.786Z,4.63
2023-04-15T15:15:46.633Z,4.75
2023-04-15T15:18:14.159Z,4.65
2023-04-15T15:20:41.705Z,4.60
2023-04-15T15:23:09.754Z,3.95
2023-04-15T15:25:37.414Z,5.20
2023-04-15T15:28:05.720Z,4.72
2023-04-15T15:30:33.398Z,37.15
2023-04-15T15:33:01.013Z,9.27
2023-04-15T15:35:28.645Z,4.00
2023-04-15T15:37:56.492Z,3.95
2023-04-15T15:42:52.605Z,7.97
2023-04-15T15:45:20.952Z,4.50
2023-04-15T15:47:48.450Z,5.10
2023-04-15T15:50:16.060Z,4.22
2023-04-15T15:52:43.597Z,4.32
2023-04-15T15:55:11.267Z,4.50
2023-04-15T15:57:38.784Z,4.28
2023-04-15T16:03:05.039Z,4.40
2023-04-15T16:05:28.402Z,3.67
2023-04-15T16:07:55.985Z,3.58
2023-04-15T16:10:23.598Z,3.55
2023-04-15T16:15:18.735Z,3.38
2023-04-15T17:37:15.930Z,4.45
2023-04-15T17:40:04.364Z,4.78
2023-04-15T17:42:53.982Z,5.53
2023-04-15T17:45:41.438Z,4.88
2023-04-15T17:54:04.605Z,4.72
2023-04-15T17:56:52.201Z,4.47
2023-04-15T17:59:43.972Z,4.25
2023-04-15T18:02:32.754Z,4.50
2023-04-15T18:05:22.010Z,4.85
2023-04-15T18:08:09.814Z,4.43
2023-04-15T18:10:57.288Z,4.63
2023-04-15T18:13:45.187Z,5.22
2023-04-15T18:16:33.107Z,4.93
2023-04-15T18:19:23.212Z,5.07
2023-04-15T18:21:52.230Z,5.43
2023-04-15T18:24:19.828Z,5.05
2023-04-15T18:26:49.217Z,5.10
2023-04-15T18:29:18.680Z,5.50
2023-04-15T18:31:46.282Z,5.78
2023-04-15T18:34:13.979Z,5.47
2023-04-15T18:36:41.702Z,6.80
2023-04-15T18:39:09.625Z,7.80
2023-04-15T18:44:04.922Z,6.65
2023-04-15T18:46:32.536Z,7.43
2023-04-15T18:49:00.116Z,6.28
2023-04-15T18:51:28.065Z,6.10
2023-04-15T18:53:55.707Z,6.07
2023-04-15T18:56:23.337Z,6.18
2023-04-15T18:59:19.417Z,6.32
2023-04-15T19:01:38.626Z,7.47
2023-04-15T19:04:06.436Z,7.50
2023-04-15T19:06:34.147Z,7.25
2023-04-15T19:09:02.459Z,6.40
2023-04-15T19:11:30.341Z,6.53
2023-04-15T19:13:57.840Z,6.60
2023-04-15T19:16:25.616Z,6.97
2023-04-15T19:18:53.472Z,6.72
2023-04-15T19:21:21.197Z,7.53
2023-04-15T19:23:50.370Z,7.78
2023-04-15T19:26:18.064Z,7.63
2023-04-15T19:28:45.620Z,6.72
2023-04-15T19:31:13.228Z,7.28
2023-04-15T19:33:40.803Z,8.30
2023-04-15T19:36:08.454Z,7.85
2023-04-15T19:38:36.972Z,9.15
2023-04-15T19:41:04.662Z,8.60
2023-04-15T19:43:33.107Z,8.15
2023-04-15T19:46:01.065Z,7.70
2023-04-15T19:48:28.773Z,8.05
2023-04-15T19:50:57.379Z,7.13
2023-04-15T19:53:25.783Z,10.32
2023-04-15T19:55:53.755Z,12.82
2023-04-15T19:58:21.731Z,13.13
2023-04-15T20:00:49.491Z,13.95
2023-04-15T20:03:19.030Z,13.35
2023-04-15T20:05:47.055Z,15.70
2023-04-15T20:08:14.894Z,15.20
2023-04-15T20:10:42.591Z,14.30
2023-04-15T20:13:10.112Z,13.82
2023-04-15T20:15:37.948Z,13.32
2023-04-15T20:18:05.714Z,12.82
2023-04-15T20:20:34.883Z,12.85
2023-04-15T20:23:02.442Z,14.05
2023-04-15T20:25:30.059Z,14.27
2023-04-15T20:28:00.424Z,15.90
2023-04-15T20:30:29.323Z,15.57
2023-04-15T20:32:57.575Z,16.83
2023-04-15T20:37:55.792Z,16.92
2023-04-15T20:40:23.554Z,17.33
2023-04-15T20:42:51.477Z,15.98
2023-04-15T20:45:19.012Z,16.20
2023-04-15T20:47:46.830Z,17.60
2023-04-15T20:52:42.482Z,21.25
2023-04-15T20:55:10.143Z,24.67
2023-04-15T20:57:38.012Z,22.23
2023-04-15T21:00:06.514Z,22.48
2023-04-15T21:02:34.245Z,22.08
2023-04-15T21:05:01.888Z,20.90
2023-04-15T21:07:29.610Z,20.25
2023-04-15T21:09:57.598Z,17.63
2023-04-15T21:12:25.117Z,19.67
2023-04-15T21:14:52.717Z,19.35
2023-04-15T21:17:20.481Z,18.52
2023-04-15T21:19:48.160Z,17.25
2023-04-15T21:22:16.178Z,17.13
2023-04-15T21:24:44.677Z,15.32
2023-04-15T21:27:12.290Z,16.65
2023-04-15T21:29:40.539Z,16.27
2023-04-15T21:32:08.827Z,15.95
2023-04-15T21:34:36.892Z,14.95
2023-04-15T21:37:04.668Z,13.90
2023-04-15T21:39:32.230Z,14.65
2023-04-15T21:41:59.835Z,16.02
2023-04-15T21:44:28.277Z,14.25
2023-04-15T21:46:56.515Z,17.05
2023-04-15T21:49:25.602Z,16.55
2023-04-15T21:51:53.761Z,15.10
2023-04-15T21:54:21.415Z,15.10
2023-04-15T21:56:50.078Z,14.65
2023-04-15T21:59:17.979Z,14.18
2023-04-15T22:01:45.922Z,15.57
2023-04-15T22:04:13.818Z,15.38
2023-04-15T22:06:41.480Z,12.68
2023-04-15T22:09:10.588Z,13.95
2023-04-15T22:11:39.923Z,12.57
2023-04-15T22:14:07.593Z,12.98
2023-04-15T22:16:35.137Z,13.52
2023-04-15T22:19:03.033Z,14.95
2023-04-15T22:21:30.668Z,13.52
2023-04-15T22:24:32.593Z,15.73
2023-04-15T22:26:45.970Z,16.05
2023-04-15T22:29:13.600Z,17.17
2023-04-15T22:31:41.970Z,16.17
2023-04-15T22:34:09.994Z,17.42
2023-04-15T22:36:37.533Z,17.65
2023-04-15T22:39:05.235Z,17.98
2023-04-15T22:41:33.948Z,17.10
2023-04-15T22:44:01.430Z,16.98
2023-04-15T22:46:29.479Z,17.00
2023-04-15T22:48:57.176Z,16.83
2023-04-15T22:51:28.074Z,19.17
2023-04-15T22:53:56.767Z,18.83
2023-04-15T22:56:24.437Z,18.42
2023-04-15T22:58:52.687Z,17.33
2023-04-15T23:03:56.255Z,16.83
2023-04-15T23:06:27.640Z,18.30
2023-04-15T23:08:55.368Z,18.52
2023-04-15T23:11:22.988Z,18.75
2023-04-15T23:13:50.882Z,18.83
2023-04-15T23:18:46.594Z,18.33
2023-04-15T23:23:41.946Z,18.30
2023-04-15T23:26:09.476Z,18.77
2023-04-15T23:28:37.001Z,18.75
2023-04-15T23:31:04.842Z,17.70
2023-04-15T23:33:32.674Z,17.65
2023-04-15T23:36:00.329Z,16.20
2023-04-15T23:38:27.853Z,16.15
2023-04-15T23:40:55.363Z,15.82
2023-04-15T23:43:22.956Z,17.23
2023-04-15T23:45:50.848Z,16.08
2023-04-15T23:50:45.892Z,17.60
2023-04-15T23:53:13.394Z,17.13
2023-04-15T23:55:40.883Z,15.60
2023-04-15T23:58:08.510Z,16.20
